createdAt,value
2022-10-05T00:01:47.620Z,15.50
2022-10-05T00:04:15.885Z,15.50
2022-10-05T00:06:50.790Z,15.50
2022-10-05T00:09:23.312Z,15.50
2022-10-05T00:11:50.949Z,15.60
2022-10-05T00:14:32.809Z,15.50
2022-10-05T00:17:01.561Z,15.50
2022-10-05T00:19:39.076Z,15.50
2022-10-05T00:22:18.113Z,15.50
2022-10-05T00:24:45.843Z,15.50
2022-10-05T00:27:22.372Z,15.50
2022-10-05T00:29:50.695Z,15.50
2022-10-05T00:32:17.875Z,15.50
2022-10-05T00:34:45.816Z,15.50
2022-10-05T00:37:14.335Z,15.50
2022-10-05T00:39:42.157Z,15.50
2022-10-05T00:42:45.672Z,15.50
2022-10-05T00:45:15.226Z,15.50
2022-10-05T00:48:06.722Z,15.50
2022-10-05T00:50:42.391Z,15.50
2022-10-05T00:53:24.501Z,15.50
2022-10-05T00:56:02.235Z,15.50
2022-10-05T00:58:43.762Z,15.50
2022-10-05T01:01:38.958Z,15.50
2022-10-05T01:04:24.319Z,15.50
2022-10-05T01:07:17.783Z,15.40
2022-10-05T01:10:13.401Z,15.50
2022-10-05T01:13:15.096Z,15.40
2022-10-05T01:16:02.425Z,15.40
2022-10-05T01:19:01.571Z,15.30
2022-10-05T01:21:33.611Z,15.30
2022-10-05T01:24:35.527Z,15.30
2022-10-05T01:27:05.143Z,15.40
2022-10-05T01:29:43.856Z,15.30
2022-10-05T01:32:15.377Z,15.30
2022-10-05T01:34:59.806Z,15.30
2022-10-05T01:37:55.288Z,15.30
2022-10-05T01:40:47.349Z,15.30
2022-10-05T01:43:49.318Z,15.30
2022-10-05T01:46:44.434Z,15.20
2022-10-05T01:49:38.617Z,15.20
2022-10-05T01:52:14.402Z,15.30
2022-10-05T01:55:13.810Z,15.20
2022-10-05T01:57:59.643Z,15.30
2022-10-05T02:00:28.435Z,15.30
2022-10-05T02:03:01.137Z,15.30
2022-10-05T02:05:46.288Z,15.30
2022-10-05T02:08:39.992Z,15.20
2022-10-05T02:11:09.963Z,15.30
2022-10-05T02:13:39.889Z,15.20
2022-10-05T02:16:35.546Z,15.20
2022-10-05T02:19:18.049Z,15.20
2022-10-05T02:21:49.129Z,15.20
2022-10-05T02:24:23.601Z,15.20
2022-10-05T02:26:51.729Z,15.20
2022-10-05T02:29:22.263Z,15.20
2022-10-05T02:32:00.144Z,15.20
2022-10-05T02:34:41.694Z,15.20
2022-10-05T02:37:29.769Z,15.10
2022-10-05T02:40:13.610Z,15.20
2022-10-05T02:43:11.510Z,15.20
2022-10-05T02:46:14.182Z,15.20
2022-10-05T02:48:59.270Z,15.10
2022-10-05T02:51:53.129Z,15.10
2022-10-05T02:54:42.616Z,15.10
2022-10-05T02:57:27.379Z,15.00
2022-10-05T03:00:15.606Z,15.00
2022-10-05T03:03:10.358Z,15.00
2022-10-05T03:05:54.765Z,15.00
2022-10-05T03:08:36.898Z,15.00
2022-10-05T03:11:28.480Z,15.00
2022-10-05T03:13:58.078Z,15.10
2022-10-05T03:16:50.201Z,15.00
2022-10-05T03:19:36.880Z,15.00
2022-10-05T03:22:22.064Z,14.90
2022-10-05T03:25:11.569Z,14.90
2022-10-05T03:27:57.331Z,14.80
2022-10-05T03:30:26.482Z,14.80
2022-10-05T03:33:13.277Z,14.80
2022-10-05T03:35:48.837Z,14.80
2022-10-05T03:38:23.694Z,14.80
2022-10-05T03:41:05.285Z,14.70
2022-10-05T03:43:46.543Z,14.70
2022-10-05T03:46:37.366Z,14.70
2022-10-05T03:49:17.039Z,14.70
2022-10-05T03:51:51.295Z,14.70
2022-10-05T03:54:32.402Z,14.60
2022-10-05T03:57:09.417Z,14.70
2022-10-05T03:59:51.554Z,14.70
2022-10-05T04:02:36.905Z,14.70
2022-10-05T04:05:09.635Z,14.80
2022-10-05T04:08:01.116Z,14.80
2022-10-05T04:10:50.387Z,14.70
2022-10-05T04:13:47.550Z,14.70
2022-10-05T04:16:16.009Z,14.70
2022-10-05T04:18:48.018Z,14.70
2022-10-05T04:21:23.902Z,14.60
2022-10-05T04:24:00.690Z,14.70
2022-10-05T04:26:42.023Z,14.60
2022-10-05T04:29:22.698Z,14.70
2022-10-05T04:32:08.873Z,14.60
2022-10-05T04:35:03.878Z,14.60
2022-10-05T04:37:43.154Z,14.60
2022-10-05T04:40:33.990Z,14.60
2022-10-05T04:43:38.721Z,14.60
2022-10-05T04:46:11.020Z,14.50
2022-10-05T04:48:53.624Z,14.40
2022-10-05T04:51:41.622Z,14.60
2022-10-05T04:54:44.282Z,14.50
2022-10-05T04:57:17.678Z,14.50
2022-10-05T05:00:03.708Z,14.40
2022-10-05T05:02:42.007Z,14.40
2022-10-05T05:05:21.937Z,14.30
2022-10-05T05:07:51.354Z,14.40
2022-10-05T05:10:42.381Z,14.40
2022-10-05T05:13:20.345Z,14.30
2022-10-05T05:16:00.038Z,14.30
2022-10-05T05:18:33.519Z,14.30
2022-10-05T05:21:16.696Z,14.30
2022-10-05T05:23:55.378Z,14.30
2022-10-05T05:26:39.793Z,14.30
2022-10-05T05:29:33.740Z,14.30
2022-10-05T05:32:12.924Z,14.20
2022-10-05T05:35:04.465Z,14.20
2022-10-05T05:37:46.187Z,14.20
2022-10-05T05:40:23.355Z,14.20
2022-10-05T05:42:49.898Z,14.30
2022-10-05T05:45:25.563Z,14.20
2022-10-05T05:47:54.750Z,14.20
2022-10-05T05:50:32.177Z,14.20
2022-10-05T05:53:12.609Z,14.20
2022-10-05T05:55:53.551Z,14.20
2022-10-05T05:58:27.241Z,14.30
2022-10-05T06:01:03.379Z,14.30
2022-10-05T06:03:57.842Z,14.30
2022-10-05T06:06:32.050Z,14.30
2022-10-05T06:09:03.168Z,14.30
2022-10-05T06:11:52.088Z,14.30
2022-10-05T06:14:50.577Z,14.30
2022-10-05T06:17:28.923Z,14.30
2022-10-05T06:20:04.711Z,14.30
2022-10-05T06:22:39.515Z,14.40
2022-10-05T06:25:12.214Z,14.40
2022-10-05T06:27:57.623Z,14.40
2022-10-05T06:30:26.154Z,14.40
2022-10-05T06:33:01.842Z,14.30
2022-10-05T06:35:58.908Z,14.40
2022-10-05T06:38:45.050Z,14.40
2022-10-05T06:41:34.689Z,14.40
2022-10-05T06:44:04.319Z,14.50
2022-10-05T06:47:07.366Z,14.40
2022-10-05T06:49:56.514Z,14.50
2022-10-05T06:52:39.598Z,14.60
2022-10-05T06:55:34.088Z,14.60
2022-10-05T06:58:30.535Z,14.60
2022-10-05T07:01:20.621Z,14.60
2022-10-05T07:04:10.787Z,14.60
2022-10-05T07:07:02.798Z,14.60
2022-10-05T07:10:03.285Z,14.60
2022-10-05T07:12:53.927Z,14.60
2022-10-05T07:15:41.959Z,14.60
2022-10-05T07:18:25.130Z,14.60
2022-10-05T07:21:27.380Z,14.70
2022-10-05T07:24:20.306Z,14.70
2022-10-05T07:26:54.867Z,14.70
2022-10-05T07:29:33.329Z,14.70
2022-10-05T07:32:15.763Z,14.70
2022-10-05T07:35:05.075Z,14.80
2022-10-05T07:37:57.961Z,14.70
2022-10-05T07:40:41.821Z,14.70
2022-10-05T07:43:57.507Z,14.70
2022-10-05T07:46:32.100Z,14.70
2022-10-05T07:49:24.906Z,14.70
2022-10-05T07:51:58.285Z,14.70
2022-10-05T07:54:30.869Z,14.80
2022-10-05T07:57:06.498Z,14.70
2022-10-05T07:59:48.905Z,14.80
2022-10-05T08:02:52.587Z,15.00
2022-10-05T08:05:28.362Z,14.90
2022-10-05T08:08:06.700Z,14.90
2022-10-05T08:10:40.226Z,14.90
2022-10-05T08:13:17.833Z,15.00
2022-10-05T08:15:48.462Z,15.10
2022-10-05T08:18:51.579Z,15.10
2022-10-05T08:21:25.639Z,15.10
2022-10-05T08:24:04.917Z,15.00
2022-10-05T08:26:51.530Z,15.10
2022-10-05T08:29:47.732Z,15.10
2022-10-05T08:32:23.730Z,15.10
2022-10-05T08:35:12.876Z,15.10
2022-10-05T08:37:43.999Z,15.20
2022-10-05T08:40:13.333Z,15.20
2022-10-05T08:43:20.571Z,15.30
2022-10-05T08:46:06.122Z,15.30
2022-10-05T08:48:44.734Z,15.50
2022-10-05T08:51:32.498Z,15.50
2022-10-05T08:54:22.803Z,15.40
2022-10-05T08:57:34.145Z,15.50
2022-10-05T09:00:19.399Z,15.60
2022-10-05T09:03:11.573Z,15.70
2022-10-05T09:06:05.747Z,15.70
2022-10-05T09:08:47.081Z,15.70
2022-10-05T09:11:36.243Z,15.70
2022-10-05T09:14:33.319Z,15.80
2022-10-05T09:17:09.151Z,15.80
2022-10-05T09:20:09.737Z,15.80
2022-10-05T09:22:48.442Z,15.90
2022-10-05T09:25:35.246Z,15.90
2022-10-05T09:28:07.799Z,15.90
2022-10-05T09:30:48.722Z,16.00
2022-10-05T09:33:36.529Z,16.00
2022-10-05T09:36:09.833Z,16.00
2022-10-05T09:38:51.697Z,16.00
2022-10-05T09:41:55.516Z,16.00
2022-10-05T09:44:51.681Z,16.00
2022-10-05T09:47:36.938Z,16.00
2022-10-05T09:50:32.880Z,16.00
2022-10-05T09:53:21.558Z,16.00
2022-10-05T09:56:21.110Z,16.00
2022-10-05T09:59:28.465Z,16.00
2022-10-05T10:02:17.560Z,16.00
2022-10-05T10:05:05.748Z,16.10
2022-10-05T10:07:51.428Z,16.00
2022-10-05T10:10:40.116Z,16.00
2022-10-05T10:13:25.100Z,16.00
2022-10-05T10:16:13.702Z,16.10
2022-10-05T10:19:27.845Z,16.10
2022-10-05T10:22:15.422Z,16.10
2022-10-05T10:24:54.361Z,16.10
2022-10-05T10:28:06.802Z,16.20
2022-10-05T10:31:09.108Z,16.20
2022-10-05T10:34:08.937Z,16.20
2022-10-05T10:37:34.507Z,16.20
2022-10-05T10:40:23.213Z,16.30
2022-10-05T10:43:14.608Z,16.30
2022-10-05T10:45:56.837Z,16.30
2022-10-05T10:48:29.160Z,16.40
2022-10-05T10:51:16.295Z,16.40
2022-10-05T10:54:02.490Z,16.50
2022-10-05T10:56:54.950Z,16.50
2022-10-05T10:59:30.712Z,16.50
2022-10-05T11:02:21.037Z,16.50
2022-10-05T11:05:25.663Z,16.60
2022-10-05T11:08:07.392Z,16.60
2022-10-05T11:11:11.342Z,16.60
2022-10-05T11:14:02.483Z,16.60
2022-10-05T11:16:53.601Z,16.80
2022-10-05T11:20:03.673Z,16.80
2022-10-05T11:22:57.269Z,16.80
2022-10-05T11:25:44.247Z,16.80
2022-10-05T11:28:29.279Z,17.00
2022-10-05T11:31:20.288Z,17.00
2022-10-05T11:34:06.708Z,17.00
2022-10-05T11:36:54.676Z,17.00
2022-10-05T11:39:42.179Z,17.10
2022-10-05T11:42:46.011Z,17.20
2022-10-05T11:45:31.404Z,17.20
2022-10-05T11:48:10.995Z,17.20
2022-10-05T11:50:51.543Z,17.30
2022-10-05T11:53:24.132Z,17.30
2022-10-05T11:56:00.538Z,17.40
2022-10-05T11:58:33.411Z,17.40
2022-10-05T12:01:12.427Z,17.40
2022-10-05T12:04:05.893Z,17.40
2022-10-05T12:07:02.827Z,17.40
2022-10-05T12:10:04.217Z,17.40
2022-10-05T12:12:55.566Z,17.50
2022-10-05T12:15:25.189Z,17.40
2022-10-05T12:18:01.131Z,17.40
2022-10-05T12:20:45.803Z,17.30
2022-10-05T12:23:42.402Z,17.40
2022-10-05T12:26:20.035Z,17.30
2022-10-05T12:28:51.485Z,17.30
2022-10-05T12:31:40.094Z,17.30
2022-10-05T12:34:22.005Z,17.30
2022-10-05T12:37:05.038Z,17.40
2022-10-05T12:39:54.375Z,17.30
2022-10-05T12:42:26.721Z,17.30
2022-10-05T12:45:16.894Z,17.30
2022-10-05T12:48:08.194Z,17.30
2022-10-05T12:50:39.026Z,17.30
2022-10-05T12:53:39.854Z,17.30
2022-10-05T12:56:21.524Z,17.40
2022-10-05T12:59:00.597Z,17.40
2022-10-05T13:01:48.386Z,17.40
2022-10-05T13:04:20.755Z,17.40
2022-10-05T13:06:55.931Z,17.40
2022-10-05T13:09:39.017Z,17.50
2022-10-05T13:12:30.000Z,17.50
2022-10-05T13:15:12.549Z,17.60
2022-10-05T13:18:03.412Z,17.60
2022-10-05T13:20:41.838Z,17.60
2022-10-05T13:23:31.557Z,17.70
2022-10-05T13:26:30.416Z,17.70
2022-10-05T13:29:12.623Z,17.80
2022-10-05T13:31:49.156Z,17.80
2022-10-05T13:34:36.314Z,17.80
2022-10-05T13:37:31.781Z,17.80
2022-10-05T13:40:13.353Z,17.80
2022-10-05T13:42:59.591Z,17.90
2022-10-05T13:45:30.164Z,17.90
2022-10-05T13:48:15.971Z,18.00
2022-10-05T13:51:06.210Z,18.20
2022-10-05T13:53:47.943Z,18.10
2022-10-05T13:56:21.106Z,18.20
2022-10-05T13:58:57.798Z,18.20
2022-10-05T14:01:49.931Z,18.40
2022-10-05T14:04:19.039Z,18.40
2022-10-05T14:06:46.208Z,18.30
2022-10-05T14:09:22.152Z,18.40
2022-10-05T14:12:05.564Z,18.40
2022-10-05T14:14:41.990Z,18.50
2022-10-05T14:17:34.816Z,18.50
2022-10-05T14:20:03.330Z,18.50
2022-10-05T14:22:30.028Z,18.50
2022-10-05T14:25:19.765Z,18.50
2022-10-05T14:28:00.002Z,18.50
2022-10-05T14:30:29.694Z,18.50
2022-10-05T14:33:00.858Z,18.40
2022-10-05T14:35:51.750Z,18.30
2022-10-05T14:38:21.464Z,18.30
2022-10-05T14:41:12.057Z,18.30
2022-10-05T14:43:48.546Z,18.30
2022-10-05T14:46:23.105Z,18.30
2022-10-05T14:49:13.420Z,18.30
2022-10-05T14:51:42.125Z,18.30
2022-10-05T14:54:41.086Z,18.40
2022-10-05T14:57:51.102Z,18.40
2022-10-05T15:00:18.760Z,18.50
2022-10-05T15:03:31.882Z,18.60
2022-10-05T15:06:01.510Z,18.60
2022-10-05T15:08:38.855Z,18.70
2022-10-05T15:11:29.171Z,18.60
2022-10-05T15:13:56.328Z,18.60
2022-10-05T15:16:32.989Z,18.50
2022-10-05T15:19:15.947Z,18.50
2022-10-05T15:22:03.597Z,18.40
2022-10-05T15:24:43.749Z,18.50
2022-10-05T15:27:27.656Z,18.40
2022-10-05T15:30:09.107Z,18.50
2022-10-05T15:33:01.431Z,18.30
2022-10-05T15:35:30.714Z,18.30
2022-10-05T15:38:04.682Z,18.30
2022-10-05T15:40:59.001Z,18.30
2022-10-05T15:43:38.903Z,18.20
2022-10-05T15:46:13.939Z,18.20
2022-10-05T15:48:58.030Z,18.20
2022-10-05T15:51:27.346Z,18.20
2022-10-05T15:54:25.898Z,18.20
2022-10-05T15:57:01.871Z,18.20
2022-10-05T15:59:52.517Z,18.10
2022-10-05T16:02:25.305Z,18.10
2022-10-05T16:05:13.462Z,18.10
2022-10-05T16:08:04.623Z,18.00
2022-10-05T16:10:36.935Z,18.00
2022-10-05T16:13:27.820Z,18.00
2022-10-05T16:16:17.782Z,18.00
2022-10-05T16:19:10.595Z,17.90
2022-10-05T16:21:57.867Z,17.90
2022-10-05T16:24:43.206Z,18.00
2022-10-05T16:27:32.627Z,17.90
2022-10-05T16:30:02.971Z,17.90
2022-10-05T16:32:58.416Z,17.80
2022-10-05T16:35:49.847Z,17.70
2022-10-05T16:38:35.460Z,17.80
2022-10-05T16:41:13.559Z,17.70
2022-10-05T16:44:22.785Z,17.70
2022-10-05T16:46:52.390Z,17.60
2022-10-05T16:49:40.954Z,17.60
2022-10-05T16:52:13.683Z,17.60
2022-10-05T16:54:48.493Z,17.60
2022-10-05T16:57:22.814Z,17.60
2022-10-05T16:59:55.570Z,17.70
2022-10-05T17:02:28.225Z,17.60
2022-10-05T17:05:07.234Z,17.60
2022-10-05T17:07:58.325Z,17.60
2022-10-05T17:10:30.776Z,17.60
2022-10-05T17:13:16.238Z,17.60
2022-10-05T17:16:10.260Z,17.50
2022-10-05T17:19:32.812Z,17.50
2022-10-05T17:22:15.646Z,17.50
2022-10-05T17:25:04.992Z,17.60
2022-10-05T17:27:53.420Z,17.70
2022-10-05T17:30:35.683Z,17.60
2022-10-05T17:33:23.423Z,17.60
2022-10-05T17:35:54.182Z,17.50
2022-10-05T17:38:22.802Z,17.60
2022-10-05T17:41:13.886Z,17.60
2022-10-05T17:44:01.196Z,17.50
2022-10-05T17:46:57.508Z,17.60
2022-10-05T17:49:42.604Z,17.60
2022-10-05T17:52:41.953Z,17.60
2022-10-05T17:55:25.477Z,17.50
2022-10-05T17:57:52.526Z,17.60
2022-10-05T18:00:32.974Z,17.60
2022-10-05T18:03:00.078Z,17.50
2022-10-05T18:05:30.506Z,17.60
2022-10-05T18:08:12.814Z,17.50
2022-10-05T18:11:17.368Z,17.50
2022-10-05T18:13:49.860Z,17.50
2022-10-05T18:16:54.130Z,17.40
2022-10-05T18:19:22.446Z,17.40
2022-10-05T18:22:18.231Z,17.40
2022-10-05T18:25:05.702Z,17.40
2022-10-05T18:27:47.494Z,17.30
2022-10-05T18:30:25.270Z,17.30
2022-10-05T18:32:57.598Z,17.30
2022-10-05T18:35:30.907Z,17.30
2022-10-05T18:38:35.370Z,17.30
2022-10-05T18:41:16.441Z,17.20
2022-10-05T18:44:03.371Z,17.20
2022-10-05T18:46:45.203Z,17.20
2022-10-05T18:49:42.846Z,17.20
2022-10-05T18:52:18.718Z,17.10
2022-10-05T18:54:54.733Z,17.10
2022-10-05T18:57:29.571Z,17.10
2022-10-05T19:00:07.130Z,17.20
2022-10-05T19:03:05.614Z,17.10
2022-10-05T19:05:53.916Z,17.10
2022-10-05T19:08:45.170Z,17.10
2022-10-05T19:11:40.992Z,17.00
2022-10-05T19:14:22.402Z,17.10
2022-10-05T19:17:13.614Z,17.10
2022-10-05T19:20:17.223Z,17.00
2022-10-05T19:22:58.737Z,17.10
2022-10-05T19:25:46.110Z,17.00
2022-10-05T19:28:26.782Z,16.90
2022-10-05T19:31:11.980Z,16.90
2022-10-05T19:34:08.975Z,16.90
2022-10-05T19:37:14.093Z,16.90
2022-10-05T19:39:54.965Z,16.90
2022-10-05T19:43:03.208Z,16.90
2022-10-05T19:45:36.619Z,16.90
2022-10-05T19:48:28.264Z,16.90
2022-10-05T19:51:00.175Z,16.90
2022-10-05T19:53:30.918Z,17.00
2022-10-05T19:56:20.812Z,17.00
2022-10-05T19:58:49.882Z,17.00
2022-10-05T20:01:24.157Z,17.00
2022-10-05T20:03:51.451Z,17.00
2022-10-05T20:06:21.595Z,17.10
2022-10-05T20:08:50.895Z,17.10
2022-10-05T20:11:23.207Z,17.10
2022-10-05T20:13:52.880Z,17.10
2022-10-05T20:19:52.142Z,17.10
2022-10-05T20:22:39.516Z,17.10
2022-10-05T20:25:28.763Z,17.20
2022-10-05T20:27:56.149Z,17.20
2022-10-05T20:30:25.519Z,17.20
2022-10-05T20:32:57.552Z,17.30
2022-10-05T20:35:27.692Z,17.20
2022-10-05T20:37:55.195Z,17.20
2022-10-05T20:40:21.863Z,17.10
2022-10-05T20:42:48.472Z,17.00
2022-10-05T20:45:15.290Z,16.70
2022-10-05T20:47:42.164Z,16.60
2022-10-05T20:50:10.414Z,16.40
2022-10-05T20:52:37.888Z,16.30
2022-10-05T20:55:06.297Z,16.20
2022-10-05T20:57:32.971Z,16.00
2022-10-05T20:59:59.615Z,16.10
2022-10-05T21:02:26.259Z,16.00
2022-10-05T21:04:52.866Z,15.90
2022-10-05T21:07:20.983Z,15.90
2022-10-05T21:09:47.785Z,15.80
2022-10-05T21:12:14.530Z,15.80
2022-10-05T21:14:41.154Z,15.70
2022-10-05T21:17:08.169Z,15.70
2022-10-05T21:19:39.750Z,15.70
2022-10-05T21:22:08.992Z,15.50
2022-10-05T21:24:37.506Z,15.60
2022-10-05T21:27:04.797Z,15.60
2022-10-05T21:29:32.925Z,15.50
2022-10-05T21:31:59.694Z,15.50
2022-10-05T21:34:26.473Z,15.60
2022-10-05T21:36:53.102Z,15.40
2022-10-05T21:39:20.217Z,15.50
2022-10-05T21:41:49.596Z,15.50
2022-10-05T21:44:16.667Z,15.40
2022-10-05T21:46:43.618Z,15.40
2022-10-05T21:49:10.214Z,15.40
2022-10-05T21:51:37.898Z,15.30
2022-10-05T21:54:11.508Z,15.20
2022-10-05T21:56:42.951Z,15.30
2022-10-05T21:59:13.072Z,15.20
2022-10-05T22:01:39.679Z,15.20
2022-10-05T22:04:07.079Z,15.20
2022-10-05T22:06:35.153Z,15.10
2022-10-05T22:09:02.081Z,15.10
2022-10-05T22:11:29.040Z,15.20
2022-10-05T22:14:01.987Z,15.10
2022-10-05T22:16:34.560Z,15.10
2022-10-05T22:19:06.974Z,15.00
2022-10-05T22:21:41.319Z,15.00
2022-10-05T22:24:08.965Z,15.00
2022-10-05T22:26:35.869Z,15.10
2022-10-05T22:29:03.331Z,15.00
2022-10-05T22:31:30.074Z,15.00
2022-10-05T22:33:56.720Z,14.90
2022-10-05T22:36:23.441Z,14.90
2022-10-05T22:38:50.091Z,14.80
2022-10-05T22:41:18.206Z,14.90
2022-10-05T22:43:48.482Z,15.10
2022-10-05T22:46:15.346Z,14.80
2022-10-05T22:48:41.982Z,14.80
2022-10-05T22:51:08.754Z,14.70
2022-10-05T22:53:35.831Z,14.80
2022-10-05T22:56:08.063Z,14.70
2022-10-05T22:58:35.598Z,14.70
2022-10-05T23:01:07.744Z,14.70
2022-10-05T23:03:35.048Z,14.60
2022-10-05T23:06:12.898Z,14.50
2022-10-05T23:08:40.897Z,14.50
2022-10-05T23:11:12.450Z,14.30
2022-10-05T23:13:39.697Z,14.40
2022-10-05T23:16:14.535Z,14.40
2022-10-05T23:18:41.736Z,14.40
2022-10-05T23:21:09.785Z,14.30
2022-10-05T23:23:41.949Z,14.30
2022-10-05T23:26:10.685Z,14.30
2022-10-05T23:28:39.678Z,14.30
2022-10-05T23:31:08.380Z,14.20
2022-10-05T23:33:35.447Z,14.20
2022-10-05T23:36:05.181Z,14.20
2022-10-05T23:38:32.352Z,14.20
2022-10-05T23:40:59.750Z,14.20
2022-10-05T23:43:27.378Z,14.30
2022-10-05T23:45:54.329Z,14.20
2022-10-05T23:48:21.488Z,14.20
2022-10-05T23:50:49.358Z,14.20
2022-10-05T23:53:17.301Z,14.20
2022-10-05T23:55:44.259Z,14.20
2022-10-05T23:58:11.615Z,14.10
